RJAK(METAR)
02/18 15:00
METAR RJAK 180600Z VRB04KT 9999 FEW250 13/M07 Q1023 RMK 1CI250 A3021
W/E=
戻る
トップページへ戻る
IMOC Co,.Ltd.